sensor_id;sensor_type;location;lat;lon;timestamp;pressure;altitude;pressure_sealevel;temperature;humidity
36380;BME280;22411;53.016;18.632;2024-03-25T00:00:39;98510.56;;;1.03;100.00
36380;BME280;22411;53.016;18.632;2024-03-25T00:03:25;98507.22;;;1.03;100.00
36380;BME280;22411;53.016;18.632;2024-03-25T00:05:50;98505.38;;;1.05;100.00
36380;BME280;22411;53.016;18.632;2024-03-25T00:08:16;98502.00;;;1.04;100.00
36380;BME280;22411;53.016;18.632;2024-03-25T00:10:42;98495.38;;;1.02;100.00
36380;BME280;22411;53.016;18.632;2024-03-25T00:13:08;98502.28;;;1.00;100.00
36380;BME280;22411;53.016;18.632;2024-03-25T00:15:36;98504.22;;;0.96;100.00
36380;BME280;22411;53.016;18.632;2024-03-25T00:18:04;98505.03;;;0.97;100.00
36380;BME280;22411;53.016;18.632;2024-03-25T00:20:29;98504.94;;;0.98;100.00
36380;BME280;22411;53.016;18.632;2024-03-25T00:22:55;98498.38;;;0.94;100.00
36380;BME280;22411;53.016;18.632;2024-03-25T00:25:21;98501.75;;;0.95;100.00
36380;BME280;22411;53.016;18.632;2024-03-25T00:27:47;98504.22;;;0.96;100.00
36380;BME280;22411;53.016;18.632;2024-03-25T00:30:13;98509.84;;;1.01;100.00
36380;BME280;22411;53.016;18.632;2024-03-25T00:32:39;98499.66;;;1.01;100.00
36380;BME280;22411;53.016;18.632;2024-03-25T00:35:05;98501.13;;;1.06;100.00
36380;BME280;22411;53.016;18.632;2024-03-25T00:37:31;98497.53;;;1.08;100.00
36380;BME280;22411;53.016;18.632;2024-03-25T00:39:57;98495.16;;;1.05;100.00
36380;BME280;22411;53.016;18.632;2024-03-25T00:42:23;98496.91;;;1.04;100.00
36380;BME280;22411;53.016;18.632;2024-03-25T00:44:48;98491.91;;;1.03;100.00
36380;BME280;22411;53.016;18.632;2024-03-25T00:47:15;98497.72;;;1.05;100.00
36380;BME280;22411;53.016;18.632;2024-03-25T00:49:40;98500.28;;;1.05;100.00
36380;BME280;22411;53.016;18.632;2024-03-25T00:52:06;98496.09;;;1.04;100.00
36380;BME280;22411;53.016;18.632;2024-03-25T00:54:31;98493.47;;;1.06;100.00
36380;BME280;22411;53.016;18.632;2024-03-25T00:56:58;98495.16;;;1.05;100.00
36380;BME280;22411;53.016;18.632;2024-03-25T00:59:24;98499.44;;;1.04;100.00
36380;BME280;22411;53.016;18.632;2024-03-25T01:01:50;98502.09;;;1.03;100.00
36380;BME280;22411;53.016;18.632;2024-03-25T01:04:16;98493.81;;;0.99;100.00
36380;BME280;22411;53.016;18.632;2024-03-25T01:06:41;98497.47;;;0.95;100.00
36380;BME280;22411;53.016;18.632;2024-03-25T01:09:07;98495.09;;;0.92;100.00
36380;BME280;22411;53.016;18.632;2024-03-25T01:11:33;98494.28;;;0.92;100.00
36380;BME280;22411;53.016;18.632;2024-03-25T01:13:59;98494.38;;;0.90;100.00
36380;BME280;22411;53.016;18.632;2024-03-25T01:16:25;98502.94;;;0.89;100.00
36380;BME280;22411;53.016;18.632;2024-03-25T01:18:51;98500.47;;;0.88;100.00
36380;BME280;22411;53.016;18.632;2024-03-25T01:21:16;98499.75;;;0.86;100.00
36380;BME280;22411;53.016;18.632;2024-03-25T01:23:42;98497.00;;;0.89;100.00
36380;BME280;22411;53.016;18.632;2024-03-25T01:26:08;98489.56;;;0.86;100.00
36380;BME280;22411;53.016;18.632;2024-03-25T01:28:33;98482.09;;;0.83;100.00
36380;BME280;22411;53.016;18.632;2024-03-25T01:31:00;98487.19;;;0.83;100.00
36380;BME280;22411;53.016;18.632;2024-03-25T01:33:26;98480.34;;;0.83;100.00
36380;BME280;22411;53.016;18.632;2024-03-25T01:35:51;98484.53;;;0.84;100.00
36380;BME280;22411;53.016;18.632;2024-03-25T01:38:17;98485.44;;;0.83;100.00
36380;BME280;22411;53.016;18.632;2024-03-25T01:40:43;98492.00;;;0.87;100.00
36380;BME280;22411;53.016;18.632;2024-03-25T01:43:10;98477.63;;;0.86;100.00
36380;BME280;22411;53.016;18.632;2024-03-25T01:45:36;98477.72;;;0.85;100.00
36380;BME280;22411;53.016;18.632;2024-03-25T01:48:06;98481.97;;;0.84;100.00
36380;BME280;22411;53.016;18.632;2024-03-25T01:50:39;98476.00;;;0.85;100.00
36380;BME280;22411;53.016;18.632;2024-03-25T01:53:06;98485.38;;;0.85;100.00
36380;BME280;22411;53.016;18.632;2024-03-25T01:55:34;98469.34;;;0.83;100.00
36380;BME280;22411;53.016;18.632;2024-03-25T01:58:01;98466.97;;;0.80;100.00
36380;BME280;22411;53.016;18.632;2024-03-25T02:00:27;98466.25;;;0.77;100.00
36380;BME280;22411;53.016;18.632;2024-03-25T02:02:54;98468.88;;;0.76;100.00
36380;BME280;22411;53.016;18.632;2024-03-25T02:05:20;98472.34;;;0.75;100.00
36380;BME280;22411;53.016;18.632;2024-03-25T02:07:48;98480.72;;;0.77;100.00
36380;BME280;22411;53.016;18.632;2024-03-25T02:10:15;98487.47;;;0.78;100.00
36380;BME280;22411;53.016;18.632;2024-03-25T02:12:45;98479.81;;;0.78;100.00
36380;BME280;22411;53.016;18.632;2024-03-25T02:15:12;98477.47;;;0.75;100.00
36380;BME280;22411;53.016;18.632;2024-03-25T02:17:39;98485.81;;;0.77;100.00
36380;BME280;22411;53.016;18.632;2024-03-25T02:20:06;98478.28;;;0.75;100.00
36380;BME280;22411;53.016;18.632;2024-03-25T02:22:33;98476.44;;;0.77;100.00
36380;BME280;22411;53.016;18.632;2024-03-25T02:25:01;98473.19;;;0.75;100.00
36380;BME280;22411;53.016;18.632;2024-03-25T02:27:27;98474.97;;;0.73;100.00
36380;BME280;22411;53.016;18.632;2024-03-25T02:29:54;98480.09;;;0.73;100.00
36380;BME280;22411;53.016;18.632;2024-03-25T02:32:20;98482.56;;;0.75;100.00
36380;BME280;22411;53.016;18.632;2024-03-25T02:35:08;98482.56;;;0.75;100.00
36380;BME280;22411;53.016;18.632;2024-03-25T02:37:36;98479.38;;;0.71;100.00
36380;BME280;22411;53.016;18.632;2024-03-25T02:40:02;98487.72;;;0.73;100.00
36380;BME280;22411;53.016;18.632;2024-03-25T02:42:31;98482.47;;;0.76;100.00
36380;BME280;22411;53.016;18.632;2024-03-25T02:44:58;98487.66;;;0.75;100.00
36380;BME280;22411;53.016;18.632;2024-03-25T02:47:24;98482.72;;;0.72;100.00
36380;BME280;22411;53.016;18.632;2024-03-25T02:49:50;98486.19;;;0.71;100.00
36380;BME280;22411;53.016;18.632;2024-03-25T02:52:17;98481.09;;;0.71;100.00
36380;BME280;22411;53.016;18.632;2024-03-25T02:54:43;98483.91;;;0.66;100.00
36380;BME280;22411;53.016;18.632;2024-03-25T02:57:09;98486.94;;;0.59;100.00
36380;BME280;22411;53.016;18.632;2024-03-25T02:59:35;98486.03;;;0.60;100.00
36380;BME280;22411;53.016;18.632;2024-03-25T03:02:00;98491.03;;;0.61;100.00
36380;BME280;22411;53.016;18.632;2024-03-25T03:04:26;98488.03;;;0.55;100.00
36380;BME280;22411;53.016;18.632;2024-03-25T03:06:52;98492.94;;;0.58;100.00
36380;BME280;22411;53.016;18.632;2024-03-25T03:09:18;98493.56;;;0.61;100.00
36380;BME280;22411;53.016;18.632;2024-03-25T03:11:43;98496.94;;;0.62;100.00
36380;BME280;22411;53.016;18.632;2024-03-25T03:14:09;98500.25;;;0.64;100.00
36380;BME280;22411;53.016;18.632;2024-03-25T03:16:35;98496.03;;;0.63;100.00
36380;BME280;22411;53.016;18.632;2024-03-25T03:19:01;98491.66;;;0.65;100.00
36380;BME280;22411;53.016;18.632;2024-03-25T03:21:27;98495.75;;;0.67;100.00
36380;BME280;22411;53.016;18.632;2024-03-25T03:23:53;98496.78;;;0.65;100.00
36380;BME280;22411;53.016;18.632;2024-03-25T03:26:18;98496.03;;;0.63;100.00
36380;BME280;22411;53.016;18.632;2024-03-25T03:28:44;98498.66;;;0.61;100.00
36380;BME280;22411;53.016;18.632;2024-03-25T03:31:10;98494.38;;;0.62;100.00
36380;BME280;22411;53.016;18.632;2024-03-25T03:33:36;98487.56;;;0.62;100.00
36380;BME280;22411;53.016;18.632;2024-03-25T03:36:01;98495.47;;;0.58;100.00
36380;BME280;22411;53.016;18.632;2024-03-25T03:38:27;98494.09;;;0.52;100.00
36380;BME280;22411;53.016;18.632;2024-03-25T03:40:59;98499.47;;;0.47;100.00
36380;BME280;22411;53.016;18.632;2024-03-25T03:43:26;98486.94;;;0.44;100.00
36380;BME280;22411;53.016;18.632;2024-03-25T03:45:52;98497.13;;;0.44;100.00
36380;BME280;22411;53.016;18.632;2024-03-25T03:48:17;98500.38;;;0.46;100.00
36380;BME280;22411;53.016;18.632;2024-03-25T03:50:43;98493.38;;;0.50;100.00
36380;BME280;22411;53.016;18.632;2024-03-25T03:53:09;98496.59;;;0.54;100.00
36380;BME280;22411;53.016;18.632;2024-03-25T03:55:35;98499.97;;;0.54;100.00
36380;BME280;22411;53.016;18.632;2024-03-25T03:58:01;98503.13;;;0.58;100.00
36380;BME280;22411;53.016;18.632;2024-03-25T04:00:27;98501.31;;;0.60;100.00
36380;BME280;22411;53.016;18.632;2024-03-25T04:02:53;98508.97;;;0.60;100.00
36380;BME280;22411;53.016;18.632;2024-03-25T04:05:19;98503.97;;;0.58;100.00
36380;BME280;22411;53.016;18.632;2024-03-25T04:07:45;98508.31;;;0.56;100.00
36380;BME280;22411;53.016;18.632;2024-03-25T04:10:10;98512.69;;;0.54;100.00
36380;BME280;22411;53.016;18.632;2024-03-25T04:12:36;98504.31;;;0.52;100.00
36380;BME280;22411;53.016;18.632;2024-03-25T04:15:03;98505.22;;;0.51;100.00
36380;BME280;22411;53.016;18.632;2024-03-25T04:17:29;98507.06;;;0.49;100.00
36380;BME280;22411;53.016;18.632;2024-03-25T04:19:54;98510.69;;;0.45;100.00
36380;BME280;22411;53.016;18.632;2024-03-25T04:22:20;98510.13;;;0.40;100.00
36380;BME280;22411;53.016;18.632;2024-03-25T04:24:46;98515.22;;;0.40;100.00
36380;BME280;22411;53.016;18.632;2024-03-25T04:27:12;98509.47;;;0.36;100.00
36380;BME280;22411;53.016;18.632;2024-03-25T04:29:38;98511.22;;;0.36;100.00
36380;BME280;22411;53.016;18.632;2024-03-25T04:32:04;98512.69;;;0.40;100.00
36380;BME280;22411;53.016;18.632;2024-03-25T04:34:29;98516.97;;;0.39;100.00
36380;BME280;22411;53.016;18.632;2024-03-25T04:36:56;98508.50;;;0.39;100.00
36380;BME280;22411;53.016;18.632;2024-03-25T04:39:21;98514.31;;;0.41;100.00
36380;BME280;22411;53.016;18.632;2024-03-25T04:41:48;98519.41;;;0.41;100.00
36380;BME280;22411;53.016;18.632;2024-03-25T04:44:13;98522.72;;;0.43;100.00
36380;BME280;22411;53.016;18.632;2024-03-25T04:46:40;98529.44;;;0.44;100.00
36380;BME280;22411;53.016;18.632;2024-03-25T04:49:05;98526.06;;;0.43;100.00
36380;BME280;22411;53.016;18.632;2024-03-25T04:51:31;98532.00;;;0.44;100.00
36380;BME280;22411;53.016;18.632;2024-03-25T04:53:57;98529.44;;;0.44;100.00
36380;BME280;22411;53.016;18.632;2024-03-25T04:56:23;98534.34;;;0.47;100.00
36380;BME280;22411;53.016;18.632;2024-03-25T04:58:49;98530.06;;;0.47;100.00
36380;BME280;22411;53.016;18.632;2024-03-25T05:01:14;98536.88;;;0.47;100.00
36380;BME280;22411;53.016;18.632;2024-03-25T05:03:40;98536.72;;;0.50;100.00
36380;BME280;22411;53.016;18.632;2024-03-25T05:06:06;98542.53;;;0.52;100.00
36380;BME280;22411;53.016;18.632;2024-03-25T05:08:34;98550.03;;;0.55;100.00
36380;BME280;22411;53.016;18.632;2024-03-25T05:11:00;98550.03;;;0.55;100.00
36380;BME280;22411;53.016;18.632;2024-03-25T05:13:26;98553.41;;;0.56;100.00
36380;BME280;22411;53.016;18.632;2024-03-25T05:15:52;98558.50;;;0.56;100.00
36380;BME280;22411;53.016;18.632;2024-03-25T05:18:18;98555.47;;;0.63;100.00
36380;BME280;22411;53.016;18.632;2024-03-25T05:20:44;98554.50;;;0.66;100.00
36380;BME280;22411;53.016;18.632;2024-03-25T05:23:10;98557.59;;;0.71;100.00
36380;BME280;22411;53.016;18.632;2024-03-25T05:25:36;98558.97;;;0.76;100.00
36380;BME280;22411;53.016;18.632;2024-03-25T05:28:04;98557.69;;;0.84;100.00
36380;BME280;22411;53.016;18.632;2024-03-25T05:30:30;98562.16;;;0.94;100.00
36380;BME280;22411;53.016;18.632;2024-03-25T05:32:56;98560.06;;;1.01;100.00
36380;BME280;22411;53.016;18.632;2024-03-25T05:35:21;98562.16;;;1.09;100.00
36380;BME280;22411;53.016;18.632;2024-03-25T05:37:47;98570.06;;;1.18;100.00
36380;BME280;22411;53.016;18.632;2024-03-25T05:40:13;98565.31;;;1.26;100.00
36380;BME280;22411;53.016;18.632;2024-03-25T05:42:40;98579.81;;;1.26;100.00
36380;BME280;22411;53.016;18.632;2024-03-25T05:45:06;98578.44;;;1.35;100.00
36380;BME280;22411;53.016;18.632;2024-03-25T05:47:34;98577.44;;;1.37;100.00
36380;BME280;22411;53.016;18.632;2024-03-25T05:50:00;98579.63;;;1.43;100.00
36380;BME280;22411;53.016;18.632;2024-03-25T05:52:28;98576.78;;;1.48;100.00
36380;BME280;22411;53.016;18.632;2024-03-25T05:54:54;98584.44;;;1.48;100.00
36380;BME280;22411;53.016;18.632;2024-03-25T05:57:19;98584.63;;;1.45;100.00
36380;BME280;22411;53.016;18.632;2024-03-25T05:59:46;98586.91;;;1.49;100.00
36380;BME280;22411;53.016;18.632;2024-03-25T06:02:11;98592.81;;;1.50;100.00
36380;BME280;22411;53.016;18.632;2024-03-25T06:04:37;98585.88;;;1.52;100.00
36380;BME280;22411;53.016;18.632;2024-03-25T06:07:03;98594.16;;;1.55;100.00
36380;BME280;22411;53.016;18.632;2024-03-25T06:09:29;98592.81;;;1.50;100.00
36380;BME280;22411;53.016;18.632;2024-03-25T06:11:54;98594.81;;;1.59;100.00
36380;BME280;22411;53.016;18.632;2024-03-25T06:14:20;98590.03;;;1.67;100.00
36380;BME280;22411;53.016;18.632;2024-03-25T06:16:46;98602.72;;;1.69;100.00
36380;BME280;22411;53.016;18.632;2024-03-25T06:19:12;98601.16;;;1.66;100.00
36380;BME280;22411;53.016;18.632;2024-03-25T06:21:38;98603.81;;;1.65;100.00
36380;BME280;22411;53.016;18.632;2024-03-25T06:24:04;98601.81;;;1.70;100.00
36380;BME280;22411;53.016;18.632;2024-03-25T06:26:29;98608.44;;;1.72;100.00
36380;BME280;22411;53.016;18.632;2024-03-25T06:28:55;98609.38;;;1.71;100.00
36380;BME280;22411;53.016;18.632;2024-03-25T06:31:21;98618.66;;;1.72;100.00
36380;BME280;22411;53.016;18.632;2024-03-25T06:34:05;98611.75;;;1.74;100.00
36380;BME280;22411;53.016;18.632;2024-03-25T06:36:41;98621.84;;;1.76;100.00
36380;BME280;22411;53.016;18.632;2024-03-25T06:39:07;98622.56;;;1.78;100.00
36380;BME280;22411;53.016;18.632;2024-03-25T06:41:32;98617.28;;;1.81;100.00
36380;BME280;22411;53.016;18.632;2024-03-25T06:43:58;98622.28;;;1.82;100.00
36380;BME280;22411;53.016;18.632;2024-03-25T06:46:24;98625.38;;;1.88;100.00
36380;BME280;22411;53.016;18.632;2024-03-25T06:48:49;98626.44;;;1.98;100.00
36380;BME280;22411;53.016;18.632;2024-03-25T06:51:18;98635.81;;;2.12;100.00
36380;BME280;22411;53.016;18.632;2024-03-25T06:53:44;98634.91;;;2.25;100.00
36380;BME280;22411;53.016;18.632;2024-03-25T06:56:10;98632.47;;;2.36;100.00
36380;BME280;22411;53.016;18.632;2024-03-25T06:58:36;98640.00;;;2.52;100.00
36380;BME280;22411;53.016;18.632;2024-03-25T07:01:06;98643.28;;;2.67;100.00
36380;BME280;22411;53.016;18.632;2024-03-25T07:03:35;98647.09;;;2.74;100.00
36380;BME280;22411;53.016;18.632;2024-03-25T07:06:01;98651.94;;;2.92;100.00
36380;BME280;22411;53.016;18.632;2024-03-25T07:08:28;98650.41;;;3.02;100.00
36380;BME280;22411;53.016;18.632;2024-03-25T07:10:54;98651.63;;;3.09;100.00
36380;BME280;22411;53.016;18.632;2024-03-25T07:13:20;98659.19;;;3.10;100.00
36380;BME280;22411;53.016;18.632;2024-03-25T07:15:46;98660.41;;;3.05;100.00
36380;BME280;22411;53.016;18.632;2024-03-25T07:18:12;98658.56;;;3.20;100.00
36380;BME280;22411;53.016;18.632;2024-03-25T07:20:41;98665.66;;;3.29;100.00
36380;BME280;22411;53.016;18.632;2024-03-25T07:23:09;98675.88;;;3.41;100.00
36380;BME280;22411;53.016;18.632;2024-03-25T07:25:34;98676.69;;;3.55;100.00
36380;BME280;22411;53.016;18.632;2024-03-25T07:28:02;98683.25;;;3.59;100.00
36380;BME280;22411;53.016;18.632;2024-03-25T07:30:27;98680.16;;;3.66;100.00
36380;BME280;22411;53.016;18.632;2024-03-25T07:32:55;98685.56;;;3.75;100.00
36380;BME280;22411;53.016;18.632;2024-03-25T07:35:20;98689.75;;;3.76;100.00
36380;BME280;22411;53.016;18.632;2024-03-25T07:37:47;98691.28;;;3.78;100.00
36380;BME280;22411;53.016;18.632;2024-03-25T07:40:12;98685.97;;;3.81;100.00
36380;BME280;22411;53.016;18.632;2024-03-25T07:42:38;98688.59;;;3.92;100.00
36380;BME280;22411;53.016;18.632;2024-03-25T07:45:05;98685.91;;;3.94;100.00
36380;BME280;22411;53.016;18.632;2024-03-25T07:47:32;98692.16;;;3.90;100.00
36380;BME280;22411;53.016;18.632;2024-03-25T07:49:58;98690.72;;;3.99;100.00
36380;BME280;22411;53.016;18.632;2024-03-25T07:52:25;98692.03;;;4.04;100.00
36380;BME280;22411;53.016;18.632;2024-03-25T07:54:51;98694.59;;;4.04;100.00
36380;BME280;22411;53.016;18.632;2024-03-25T07:57:17;98696.84;;;4.09;100.00
36380;BME280;22411;53.016;18.632;2024-03-25T07:59:43;98694.56;;;4.17;100.00
36380;BME280;22411;53.016;18.632;2024-03-25T08:02:09;98697.88;;;4.30;100.00
36380;BME280;22411;53.016;18.632;2024-03-25T08:04:34;98703.19;;;4.40;100.00
36380;BME280;22411;53.016;18.632;2024-03-25T08:07:00;98709.50;;;4.47;100.00
36380;BME280;22411;53.016;18.632;2024-03-25T08:09:26;98713.72;;;4.48;100.00
36380;BME280;22411;53.016;18.632;2024-03-25T08:11:51;98707.38;;;4.41;100.00
36380;BME280;22411;53.016;18.632;2024-03-25T08:14:17;98710.75;;;4.41;100.00
36380;BME280;22411;53.016;18.632;2024-03-25T08:16:43;98714.91;;;4.31;100.00
36380;BME280;22411;53.016;18.632;2024-03-25T08:19:09;98721.63;;;4.21;100.00
36380;BME280;22411;53.016;18.632;2024-03-25T08:21:34;98721.94;;;4.16;100.00
36380;BME280;22411;53.016;18.632;2024-03-25T08:24:00;98727.28;;;4.13;100.00
36380;BME280;22411;53.016;18.632;2024-03-25T08:26:26;98727.69;;;4.20;100.00
36380;BME280;22411;53.016;18.632;2024-03-25T08:28:52;98729.72;;;4.28;100.00
36380;BME280;22411;53.016;18.632;2024-03-25T08:31:17;98726.59;;;4.35;100.00
36380;BME280;22411;53.016;18.632;2024-03-25T08:33:43;98725.22;;;4.42;100.00
36380;BME280;22411;53.016;18.632;2024-03-25T08:36:09;98738.75;;;4.68;100.00
36380;BME280;22411;53.016;18.632;2024-03-25T08:38:34;98728.03;;;4.98;100.00
36380;BME280;22411;53.016;18.632;2024-03-25T08:41:01;98735.56;;;5.24;100.00
36380;BME280;22411;53.016;18.632;2024-03-25T08:43:26;98742.69;;;5.43;100.00
36380;BME280;22411;53.016;18.632;2024-03-25T08:45:52;98731.38;;;5.68;100.00
36380;BME280;22411;53.016;18.632;2024-03-25T08:48:18;98735.63;;;5.91;100.00
36380;BME280;22411;53.016;18.632;2024-03-25T08:50:44;98741.44;;;6.16;100.00
36380;BME280;22411;53.016;18.632;2024-03-25T08:53:09;98740.19;;;6.42;100.00
36380;BME280;22411;53.016;18.632;2024-03-25T08:55:35;98741.25;;;6.83;100.00
36380;BME280;22411;53.016;18.632;2024-03-25T08:58:00;98743.03;;;7.03;100.00
36380;BME280;22411;53.016;18.632;2024-03-25T09:00:27;98748.75;;;7.07;100.00
36380;BME280;22411;53.016;18.632;2024-03-25T09:02:55;98746.03;;;7.29;100.00
36380;BME280;22411;53.016;18.632;2024-03-25T09:05:22;98746.84;;;7.30;100.00
36380;BME280;22411;53.016;18.632;2024-03-25T09:07:51;98752.00;;;7.30;100.00
36380;BME280;22411;53.016;18.632;2024-03-25T09:10:18;98751.78;;;7.12;100.00
36380;BME280;22411;53.016;18.632;2024-03-25T09:13:02;98763.25;;;7.08;100.00
36380;BME280;22411;53.016;18.632;2024-03-25T09:15:29;98762.19;;;7.11;100.00
36380;BME280;22411;53.016;18.632;2024-03-25T09:17:55;98758.56;;;7.13;100.00
36380;BME280;22411;53.016;18.632;2024-03-25T09:20:21;98762.72;;;6.93;100.00
36380;BME280;22411;53.016;18.632;2024-03-25T09:22:47;98759.31;;;6.72;100.00
36380;BME280;22411;53.016;18.632;2024-03-25T09:25:15;98762.91;;;6.37;100.00
36380;BME280;22411;53.016;18.632;2024-03-25T09:27:40;98771.50;;;6.04;100.00
36380;BME280;22411;53.016;18.632;2024-03-25T09:30:07;98760.13;;;5.73;100.00
36380;BME280;22411;53.016;18.632;2024-03-25T09:32:35;98781.38;;;5.53;100.00
36380;BME280;22411;53.016;18.632;2024-03-25T09:35:01;98774.06;;;5.13;100.00
36380;BME280;22411;53.016;18.632;2024-03-25T09:37:26;98772.50;;;4.99;100.00
36380;BME280;22411;53.016;18.632;2024-03-25T09:39:52;98773.22;;;5.01;100.00
36380;BME280;22411;53.016;18.632;2024-03-25T09:42:25;98777.66;;;5.10;100.00
36380;BME280;22411;53.016;18.632;2024-03-25T09:44:55;98783.59;;;5.11;100.00
36380;BME280;22411;53.016;18.632;2024-03-25T09:47:21;98786.66;;;5.16;100.00
36380;BME280;22411;53.016;18.632;2024-03-25T09:49:48;98782.81;;;5.21;100.00
36380;BME280;22411;53.016;18.632;2024-03-25T09:52:17;98781.66;;;5.25;100.00
36380;BME280;22411;53.016;18.632;2024-03-25T09:54:44;98783.78;;;5.32;100.00
36380;BME280;22411;53.016;18.632;2024-03-25T09:57:09;98783.31;;;5.27;100.00
36380;BME280;22411;53.016;18.632;2024-03-25T09:59:36;98781.34;;;5.30;100.00
36380;BME280;22411;53.016;18.632;2024-03-25T10:02:02;98786.97;;;5.35;100.00
36380;BME280;22411;53.016;18.632;2024-03-25T10:04:29;98781.47;;;5.40;100.00
36380;BME280;22411;53.016;18.632;2024-03-25T10:06:55;98789.06;;;5.41;100.00
36380;BME280;22411;53.016;18.632;2024-03-25T10:09:22;98785.31;;;5.34;100.00
36380;BME280;22411;53.016;18.632;2024-03-25T10:11:51;98790.13;;;5.39;100.00
36380;BME280;22411;53.016;18.632;2024-03-25T10:14:17;98789.41;;;5.37;100.00
36380;BME280;22411;53.016;18.632;2024-03-25T10:16:43;98791.41;;;5.33;100.00
36380;BME280;22411;53.016;18.632;2024-03-25T10:19:09;98796.06;;;5.28;100.00
36380;BME280;22411;53.016;18.632;2024-03-25T10:21:35;98796.28;;;5.25;100.00
36380;BME280;22411;53.016;18.632;2024-03-25T10:24:01;98796.84;;;5.17;100.00
36380;BME280;22411;53.016;18.632;2024-03-25T10:26:31;98798.41;;;4.96;100.00
36380;BME280;22411;53.016;18.632;2024-03-25T10:29:06;98804.13;;;4.76;100.00
36380;BME280;22411;53.016;18.632;2024-03-25T10:31:33;98807.44;;;4.41;100.00
36380;BME280;22411;53.016;18.632;2024-03-25T10:33:59;98810.06;;;4.15;100.00
36380;BME280;22411;53.016;18.632;2024-03-25T10:36:26;98811.59;;;4.05;100.00
36380;BME280;22411;53.016;18.632;2024-03-25T10:38:55;98810.50;;;3.97;100.00
36380;BME280;22411;53.016;18.632;2024-03-25T10:41:21;98807.50;;;3.90;100.00
36380;BME280;22411;53.016;18.632;2024-03-25T10:43:49;98807.84;;;3.85;100.00
36380;BME280;22411;53.016;18.632;2024-03-25T10:46:20;98803.13;;;3.92;100.00
36380;BME280;22411;53.016;18.632;2024-03-25T10:48:55;98805.97;;;4.00;100.00
36380;BME280;22411;53.016;18.632;2024-03-25T10:51:25;98810.66;;;4.19;100.00
36380;BME280;22411;53.016;18.632;2024-03-25T10:53:52;98814.69;;;4.47;100.00
36380;BME280;22411;53.016;18.632;2024-03-25T10:56:22;98812.88;;;4.73;100.00
36380;BME280;22411;53.016;18.632;2024-03-25T10:58:48;98809.09;;;4.90;100.00
36380;BME280;22411;53.016;18.632;2024-03-25T11:01:16;98813.84;;;5.07;100.00
36380;BME280;22411;53.016;18.632;2024-03-25T11:03:43;98813.00;;;5.42;100.00
36380;BME280;22411;53.016;18.632;2024-03-25T11:06:09;98817.63;;;5.83;100.00
36380;BME280;22411;53.016;18.632;2024-03-25T11:08:35;98818.38;;;6.19;100.00
36380;BME280;22411;53.016;18.632;2024-03-25T11:11:01;98815.69;;;6.20;100.00
36380;BME280;22411;53.016;18.632;2024-03-25T11:13:27;98818.13;;;6.11;100.00
36380;BME280;22411;53.016;18.632;2024-03-25T11:15:53;98828.63;;;5.85;100.00
36380;BME280;22411;53.016;18.632;2024-03-25T11:18:23;98827.16;;;5.59;100.00
36380;BME280;22411;53.016;18.632;2024-03-25T11:21:02;98828.53;;;5.40;100.00
36380;BME280;22411;53.016;18.632;2024-03-25T11:23:38;98835.41;;;5.29;100.00
36380;BME280;22411;53.016;18.632;2024-03-25T11:26:04;98837.59;;;5.22;100.00
36380;BME280;22411;53.016;18.632;2024-03-25T11:28:30;98832.81;;;5.17;100.00
36380;BME280;22411;53.016;18.632;2024-03-25T11:30:56;98840.47;;;5.06;100.00
36380;BME280;22411;53.016;18.632;2024-03-25T11:33:22;98833.91;;;5.02;100.00
36380;BME280;22411;53.016;18.632;2024-03-25T11:35:50;98829.47;;;5.04;100.00
36380;BME280;22411;53.016;18.632;2024-03-25T11:38:16;98834.72;;;5.03;100.00
36380;BME280;22411;53.016;18.632;2024-03-25T11:40:45;98836.91;;;4.96;100.00
36380;BME280;22411;53.016;18.632;2024-03-25T11:43:18;98834.47;;;5.06;100.00
36380;BME280;22411;53.016;18.632;2024-03-25T11:45:46;98836.84;;;5.09;100.00
36380;BME280;22411;53.016;18.632;2024-03-25T11:48:17;98832.75;;;5.06;100.00
36380;BME280;22411;53.016;18.632;2024-03-25T11:50:48;98826.94;;;5.15;100.00
36380;BME280;22411;53.016;18.632;2024-03-25T11:53:14;98826.47;;;5.45;100.00
36380;BME280;22411;53.016;18.632;2024-03-25T11:55:41;98826.91;;;5.97;100.00
36380;BME280;22411;53.016;18.632;2024-03-25T11:58:07;98824.91;;;6.45;100.00
36380;BME280;22411;53.016;18.632;2024-03-25T12:00:33;98826.50;;;6.58;100.00
36380;BME280;22411;53.016;18.632;2024-03-25T12:03:00;98833.69;;;6.54;100.00
36380;BME280;22411;53.016;18.632;2024-03-25T12:05:26;98827.72;;;6.20;100.00
36380;BME280;22411;53.016;18.632;2024-03-25T12:07:51;98832.75;;;6.21;100.00
36380;BME280;22411;53.016;18.632;2024-03-25T12:10:17;98835.19;;;6.00;100.00
36380;BME280;22411;53.016;18.632;2024-03-25T12:13:02;98841.59;;;5.84;100.00
36380;BME280;22411;53.016;18.632;2024-03-25T12:15:28;98842.34;;;5.50;100.00
36380;BME280;22411;53.016;18.632;2024-03-25T12:17:54;98844.94;;;5.27;100.00
36380;BME280;22411;53.016;18.632;2024-03-25T12:20:20;98836.22;;;5.05;100.00
36380;BME280;22411;53.016;18.632;2024-03-25T12:22:46;98839.84;;;4.79;100.00
36380;BME280;22411;53.016;18.632;2024-03-25T12:25:11;98844.16;;;4.54;100.00
36380;BME280;22411;53.016;18.632;2024-03-25T12:27:38;98847.47;;;4.43;100.00
36380;BME280;22411;53.016;18.632;2024-03-25T12:32:42;98844.84;;;4.56;100.00
36380;BME280;22411;53.016;18.632;2024-03-25T12:35:12;98849.38;;;4.53;100.00
36380;BME280;22411;53.016;18.632;2024-03-25T12:37:39;98843.16;;;4.44;100.00
36380;BME280;22411;53.016;18.632;2024-03-25T12:40:06;98847.16;;;4.35;100.00
36380;BME280;22411;53.016;18.632;2024-03-25T12:42:33;98844.78;;;4.32;100.00
36380;BME280;22411;53.016;18.632;2024-03-25T12:44:59;98838.69;;;4.22;100.00
36380;BME280;22411;53.016;18.632;2024-03-25T12:47:25;98851.81;;;4.17;100.00
36380;BME280;22411;53.016;18.632;2024-03-25T12:49:52;98841.75;;;4.27;100.00